createdAt,value
2019-03-12T00:01:00.276Z,1018.74
2019-03-12T00:02:00.810Z,1018.71
2019-03-12T00:03:01.287Z,1018.72
2019-03-12T00:04:01.749Z,1018.76
2019-03-12T00:05:02.215Z,1018.62
2019-03-12T00:06:02.672Z,1018.61
2019-03-12T00:07:03.146Z,1018.66
2019-03-12T00:08:03.669Z,1018.65
2019-03-12T00:09:04.182Z,1018.62
2019-03-12T00:10:04.630Z,1018.57
2019-03-12T00:11:05.163Z,1018.55
2019-03-12T00:12:05.606Z,1018.50
2019-03-12T00:13:06.168Z,1018.60
2019-03-12T00:14:06.613Z,1018.59
2019-03-12T00:15:07.086Z,1018.60
2019-03-12T00:16:07.553Z,1018.55
2019-03-12T00:17:08.044Z,1018.51
2019-03-12T00:18:08.484Z,1018.55
2019-03-12T00:19:08.962Z,1018.58
2019-03-12T00:20:09.416Z,1018.54
2019-03-12T00:21:09.928Z,1018.50
2019-03-12T00:22:10.366Z,1018.52
2019-03-12T00:23:10.826Z,1018.49
2019-03-12T00:24:11.263Z,1018.50
2019-03-12T00:25:11.787Z,1018.58
2019-03-12T00:26:12.292Z,1018.59
2019-03-12T00:27:12.797Z,1018.58
2019-03-12T00:28:13.241Z,1018.60
2019-03-12T00:29:13.735Z,1018.54
2019-03-12T00:30:14.174Z,1018.55
2019-03-12T00:31:14.705Z,1018.57
2019-03-12T00:32:15.145Z,1018.59
2019-03-12T00:33:15.607Z,1018.65
2019-03-12T00:34:16.073Z,1018.61
2019-03-12T00:35:17.561Z,1018.60
2019-03-12T00:36:18.024Z,1018.60
2019-03-12T00:37:18.496Z,1018.60
2019-03-12T00:38:18.933Z,1018.59
2019-03-12T00:39:19.435Z,1018.59
2019-03-12T00:40:19.878Z,1018.60
2019-03-12T00:41:20.398Z,1018.56
2019-03-12T00:42:20.855Z,1018.56
2019-03-12T00:43:21.451Z,1018.60
2019-03-12T00:44:21.896Z,1018.57
2019-03-12T00:45:22.441Z,1018.63
2019-03-12T00:46:22.895Z,1018.62
2019-03-12T00:47:24.405Z,1018.67
2019-03-12T00:48:24.839Z,1018.68
2019-03-12T00:49:25.340Z,1018.75
2019-03-12T00:50:25.839Z,1018.77
2019-03-12T00:51:26.406Z,1018.73
2019-03-12T00:52:26.845Z,1018.90
2019-03-12T00:53:27.312Z,1018.84
2019-03-12T00:54:27.756Z,1018.85
2019-03-12T00:55:28.236Z,1018.88
2019-03-12T00:56:28.701Z,1018.91
2019-03-12T00:57:29.170Z,1018.83
2019-03-12T00:58:29.605Z,1018.85
2019-03-12T00:59:30.105Z,1018.84
2019-03-12T01:00:30.539Z,1018.81
2019-03-12T01:01:31.073Z,1018.81
2019-03-12T01:02:31.512Z,1018.84
2019-03-12T01:03:31.988Z,1018.79
2019-03-12T01:04:32.445Z,1018.76
2019-03-12T01:05:33.023Z,1018.71
2019-03-12T01:06:33.490Z,1018.69
2019-03-12T01:07:33.948Z,1018.63
2019-03-12T01:08:34.386Z,1018.60
2019-03-12T01:09:34.883Z,1018.60
2019-03-12T01:10:35.325Z,1018.55
2019-03-12T01:11:35.857Z,1018.61
2019-03-12T01:12:36.300Z,1018.64
2019-03-12T01:13:36.749Z,1018.60
2019-03-12T01:14:37.185Z,1018.65
2019-03-12T01:15:37.632Z,1018.60
2019-03-12T01:16:38.137Z,1018.58
2019-03-12T01:17:38.610Z,1018.55
2019-03-12T01:18:39.153Z,1018.58
2019-03-12T01:19:39.603Z,1018.57
2019-03-12T01:20:40.091Z,1018.54
2019-03-12T01:21:40.558Z,1018.48
2019-03-12T01:22:41.107Z,1018.45
2019-03-12T01:23:41.545Z,1018.46
2019-03-12T01:24:43.069Z,1018.46
2019-03-12T01:25:43.512Z,1018.47
2019-03-12T01:26:44.036Z,1018.49
2019-03-12T01:27:44.493Z,1018.41
2019-03-12T01:28:45.039Z,1018.42
2019-03-12T01:29:45.472Z,1018.43
2019-03-12T01:30:45.973Z,1018.40
2019-03-12T01:31:46.432Z,1018.41
2019-03-12T01:32:46.917Z,1018.36
2019-03-12T01:33:47.375Z,1018.35
2019-03-12T01:34:47.854Z,1018.32
2019-03-12T01:35:48.332Z,1018.42
2019-03-12T01:36:48.811Z,1018.37
2019-03-12T01:37:49.250Z,1018.45
2019-03-12T01:38:49.721Z,1018.41
2019-03-12T01:39:50.167Z,1018.28
2019-03-12T01:40:50.646Z,1018.36
2019-03-12T01:41:51.095Z,1018.30
2019-03-12T01:42:52.595Z,1018.42
2019-03-12T01:43:53.212Z,1018.37
2019-03-12T01:44:53.741Z,1018.38
2019-03-12T01:45:54.192Z,1018.40
2019-03-12T01:46:54.715Z,1018.39
2019-03-12T01:47:55.154Z,1018.41
2019-03-12T01:48:55.614Z,1018.43
2019-03-12T01:49:56.045Z,1018.37
2019-03-12T01:50:56.550Z,1018.33
2019-03-12T01:51:57.007Z,1018.38
2019-03-12T01:52:57.492Z,1018.35
2019-03-12T01:53:57.935Z,1018.38
2019-03-12T01:54:58.418Z,1018.31
2019-03-12T01:55:58.854Z,1018.30
2019-03-12T01:56:59.385Z,1018.24
2019-03-12T01:57:59.829Z,1018.27
2019-03-12T01:59:00.283Z,1018.27
2019-03-12T02:00:00.714Z,1018.27
2019-03-12T02:01:02.251Z,1018.22
2019-03-12T02:02:02.710Z,1018.22
2019-03-12T02:03:03.176Z,1018.20
2019-03-12T02:04:03.629Z,1018.21
2019-03-12T02:05:04.112Z,1018.17
2019-03-12T02:06:04.575Z,1018.16
2019-03-12T02:07:05.080Z,1018.13
2019-03-12T02:08:05.520Z,1018.11
2019-03-12T02:09:05.985Z,1018.09
2019-03-12T02:10:06.425Z,1018.03
2019-03-12T02:11:06.928Z,1018.07
2019-03-12T02:12:07.391Z,1017.99
2019-03-12T02:13:07.851Z,1017.94
2019-03-12T02:14:08.291Z,1017.94
2019-03-12T02:15:08.786Z,1017.92
2019-03-12T02:16:09.314Z,1017.89
2019-03-12T02:17:09.855Z,1017.91
2019-03-12T02:18:10.289Z,1017.85
2019-03-12T02:19:10.769Z,1017.90
2019-03-12T02:20:11.205Z,1017.79
2019-03-12T02:21:11.694Z,1017.76
2019-03-12T02:22:12.167Z,1017.79
2019-03-12T02:23:12.640Z,1017.72
2019-03-12T02:24:13.087Z,1017.76
2019-03-12T02:25:13.616Z,1017.71
2019-03-12T02:26:14.068Z,1017.74
2019-03-12T02:27:14.682Z,1017.76
2019-03-12T02:28:15.132Z,1017.75
2019-03-12T02:29:15.635Z,1017.73
2019-03-12T02:30:16.105Z,1017.75
2019-03-12T02:31:16.674Z,1017.66
2019-03-12T02:32:17.165Z,1017.66
2019-03-12T02:33:17.715Z,1017.60
2019-03-12T02:34:18.172Z,1017.61
2019-03-12T02:35:18.670Z,1017.58
2019-03-12T02:36:19.112Z,1017.63
2019-03-12T02:37:19.628Z,1017.64
2019-03-12T02:38:20.066Z,1017.64
2019-03-12T02:39:20.616Z,1017.62
2019-03-12T02:40:21.069Z,1017.56
2019-03-12T02:41:21.662Z,1017.55
2019-03-12T02:42:22.123Z,1017.60
2019-03-12T02:43:22.588Z,1017.56
2019-03-12T02:44:23.038Z,1017.56
2019-03-12T02:45:23.533Z,1017.48
2019-03-12T02:46:24.004Z,1017.45
2019-03-12T02:47:24.499Z,1017.48
2019-03-12T02:48:24.968Z,1017.40
2019-03-12T02:49:25.508Z,1017.35
2019-03-12T02:50:25.985Z,1017.37
2019-03-12T02:51:26.527Z,1017.30
2019-03-12T02:52:26.988Z,1017.32
2019-03-12T02:53:27.468Z,1017.26
2019-03-12T02:54:27.916Z,1017.23
2019-03-12T02:55:28.511Z,1017.18
2019-03-12T02:56:28.961Z,1017.20
2019-03-12T02:57:29.474Z,1017.22
2019-03-12T02:58:29.963Z,1017.19
2019-03-12T02:59:30.473Z,1017.21
2019-03-12T03:00:30.926Z,1017.21
2019-03-12T03:01:31.432Z,1017.26
2019-03-12T03:02:31.890Z,1017.30
2019-03-12T03:03:32.759Z,1017.19
2019-03-12T03:04:33.208Z,1017.22
2019-03-12T03:05:33.700Z,1017.18
2019-03-12T03:06:34.176Z,1017.16
2019-03-12T03:07:34.665Z,1017.20
2019-03-12T03:08:35.103Z,1017.18
2019-03-12T03:09:35.669Z,1017.21
2019-03-12T03:10:36.107Z,1017.16
2019-03-12T03:11:36.600Z,1017.18
2019-03-12T03:12:37.104Z,1017.20
2019-03-12T03:13:37.643Z,1017.24
2019-03-12T03:14:38.090Z,1017.11
2019-03-12T03:15:38.696Z,1017.15
2019-03-12T03:16:39.152Z,1017.14
2019-03-12T03:17:39.683Z,1017.15
2019-03-12T03:18:40.165Z,1017.12
2019-03-12T03:19:40.638Z,1017.15
2019-03-12T03:20:41.109Z,1017.22
2019-03-12T03:21:41.724Z,1017.03
2019-03-12T03:22:42.190Z,1017.10
2019-03-12T03:23:43.741Z,1017.10
2019-03-12T03:24:44.191Z,1017.15
2019-03-12T03:25:44.678Z,1017.15
2019-03-12T03:26:45.124Z,1017.08
2019-03-12T03:27:45.660Z,1017.07
2019-03-12T03:28:46.119Z,1017.07
2019-03-12T03:29:46.656Z,1017.10
2019-03-12T03:30:47.138Z,1017.13
2019-03-12T03:31:47.679Z,1017.10
2019-03-12T03:32:48.159Z,1017.06
2019-03-12T03:33:48.738Z,1017.08
2019-03-12T03:34:49.207Z,1017.04
2019-03-12T03:35:49.753Z,1017.05
2019-03-12T03:36:50.190Z,1016.99
2019-03-12T03:37:50.777Z,1016.97
2019-03-12T03:38:51.240Z,1016.97
2019-03-12T03:39:51.733Z,1016.91
2019-03-12T03:40:52.192Z,1016.89
2019-03-12T03:41:52.676Z,1016.85
2019-03-12T03:42:53.467Z,1016.88
2019-03-12T03:43:54.006Z,1016.80
2019-03-12T03:44:54.449Z,1016.77
2019-03-12T03:45:54.948Z,1016.76
2019-03-12T03:46:55.413Z,1016.76
2019-03-12T03:47:55.912Z,1016.79
2019-03-12T03:48:56.421Z,1016.77
2019-03-12T03:49:56.914Z,1016.80
2019-03-12T03:50:57.355Z,1016.85
2019-03-12T03:51:57.847Z,1016.81
2019-03-12T03:52:58.302Z,1016.80
2019-03-12T03:53:58.776Z,1016.78
2019-03-12T03:54:59.226Z,1016.77
2019-03-12T03:55:59.709Z,1016.81
2019-03-12T03:57:00.332Z,1016.78
2019-03-12T03:58:00.896Z,1016.83
2019-03-12T03:59:01.349Z,1016.76
2019-03-12T04:00:01.899Z,1016.82
2019-03-12T04:01:02.415Z,1016.85
2019-03-12T04:02:02.957Z,1016.86
2019-03-12T04:03:03.579Z,1016.85
2019-03-12T04:04:08.988Z,1016.84
2019-03-12T04:05:09.426Z,1016.84
2019-03-12T04:06:09.876Z,1016.74
2019-03-12T04:07:10.329Z,1016.72
2019-03-12T04:08:10.959Z,1016.76
2019-03-12T04:09:11.402Z,1016.74
2019-03-12T04:10:11.892Z,1016.76
2019-03-12T04:11:12.353Z,1016.73
2019-03-12T04:12:12.822Z,1016.77
2019-03-12T04:13:13.286Z,1016.73
2019-03-12T04:14:14.781Z,1016.74
2019-03-12T04:15:15.270Z,1016.66
2019-03-12T04:16:15.810Z,1016.70
2019-03-12T04:17:16.259Z,1016.69
2019-03-12T04:18:16.792Z,1016.72
2019-03-12T04:19:17.249Z,1016.74
2019-03-12T04:20:17.822Z,1016.67
2019-03-12T04:21:18.288Z,1016.63
2019-03-12T04:22:18.859Z,1016.64
2019-03-12T04:23:19.318Z,1016.62
2019-03-12T04:24:19.858Z,1016.63
2019-03-12T04:25:20.343Z,1016.67
2019-03-12T04:26:20.901Z,1016.66
2019-03-12T04:27:21.353Z,1016.64
2019-03-12T04:28:21.877Z,1016.68
2019-03-12T04:29:22.331Z,1016.62
2019-03-12T04:30:22.868Z,1016.61
2019-03-12T04:31:23.319Z,1016.60
2019-03-12T04:32:23.812Z,1016.50
2019-03-12T04:33:24.274Z,1016.54
2019-03-12T04:34:24.719Z,1016.54
2019-03-12T04:35:25.203Z,1016.49
2019-03-12T04:36:25.672Z,1016.43
2019-03-12T04:37:26.125Z,1016.39
2019-03-12T04:38:26.535Z,1016.32
2019-03-12T04:39:26.983Z,1016.24
2019-03-12T04:40:27.557Z,1016.29
2019-03-12T04:41:28.007Z,1016.19
2019-03-12T04:42:28.475Z,1016.29
2019-03-12T04:43:28.928Z,1016.34
2019-03-12T04:44:29.424Z,1016.36
2019-03-12T04:45:29.862Z,1016.28
2019-03-12T04:46:30.356Z,1016.35
2019-03-12T04:47:30.801Z,1016.29
2019-03-12T04:48:31.319Z,1016.29
2019-03-12T04:49:31.768Z,1016.32
2019-03-12T04:50:32.350Z,1016.29
2019-03-12T04:51:32.811Z,1016.29
2019-03-12T04:52:33.393Z,1016.28
2019-03-12T04:53:33.871Z,1016.28
2019-03-12T04:54:34.411Z,1016.30
2019-03-12T04:55:34.860Z,1016.17
2019-03-12T04:56:35.424Z,1016.18
2019-03-12T04:57:35.865Z,1016.16
2019-03-12T04:58:36.405Z,1016.06
2019-03-12T04:59:36.862Z,1016.07
2019-03-12T05:00:37.393Z,1015.99
2019-03-12T05:01:37.839Z,1016.03
2019-03-12T05:02:38.328Z,1016.03
2019-03-12T05:03:38.796Z,1016.07
2019-03-12T05:04:39.247Z,1015.97
2019-03-12T05:05:39.692Z,1016.02
2019-03-12T05:06:40.195Z,1015.90
2019-03-12T05:07:40.637Z,1015.95
2019-03-12T05:08:41.167Z,1015.92
2019-03-12T05:09:41.610Z,1015.92
2019-03-12T05:10:42.066Z,1015.93
2019-03-12T05:11:42.499Z,1015.89
2019-03-12T05:12:42.999Z,1015.97
2019-03-12T05:13:43.458Z,1015.93
2019-03-12T05:14:43.935Z,1015.93
2019-03-12T05:15:44.374Z,1015.91
2019-03-12T05:16:44.870Z,1015.85
2019-03-12T05:17:45.313Z,1015.84
2019-03-12T05:18:45.841Z,1015.85
2019-03-12T05:19:46.287Z,1015.78
2019-03-12T05:20:46.736Z,1015.84
2019-03-12T05:21:47.186Z,1015.78
2019-03-12T05:22:47.758Z,1015.87
2019-03-12T05:23:48.267Z,1015.80
2019-03-12T05:24:48.809Z,1015.85
2019-03-12T05:25:49.402Z,1015.79
2019-03-12T05:26:49.899Z,1015.80
2019-03-12T05:27:50.342Z,1015.78
2019-03-12T05:28:50.919Z,1015.77
2019-03-12T05:29:51.353Z,1015.76
2019-03-12T05:30:51.820Z,1015.82
2019-03-12T05:31:52.302Z,1015.78
2019-03-12T05:32:52.759Z,1015.77
2019-03-12T05:33:53.232Z,1015.76
2019-03-12T05:34:53.688Z,1015.74
2019-03-12T05:35:54.123Z,1015.67
2019-03-12T05:36:54.642Z,1015.67
2019-03-12T05:37:55.082Z,1015.62
2019-03-12T05:38:55.601Z,1015.70
2019-03-12T05:39:56.050Z,1015.63
2019-03-12T05:40:56.598Z,1015.63
2019-03-12T05:41:57.043Z,1015.60
2019-03-12T05:42:57.527Z,1015.60
2019-03-12T05:43:57.985Z,1015.55
2019-03-12T05:44:58.463Z,1015.49
2019-03-12T05:45:58.967Z,1015.51
2019-03-12T05:46:59.512Z,1015.51
2019-03-12T05:47:59.972Z,1015.48
2019-03-12T05:49:00.472Z,1015.48
2019-03-12T05:50:00.922Z,1015.43
2019-03-12T05:51:01.369Z,1015.38
2019-03-12T05:52:01.806Z,1015.36
2019-03-12T05:53:02.303Z,1015.34
2019-03-12T05:54:02.768Z,1015.37
2019-03-12T05:55:03.248Z,1015.36
2019-03-12T05:56:03.712Z,1015.36
2019-03-12T05:57:04.172Z,1015.38
2019-03-12T05:58:04.612Z,1015.35
2019-03-12T05:59:05.138Z,1015.33
2019-03-12T06:00:05.580Z,1015.39
2019-03-12T06:01:06.039Z,1015.36
2019-03-12T06:02:06.480Z,1015.29
2019-03-12T06:03:06.978Z,1015.38
2019-03-12T06:04:07.437Z,1015.29
2019-03-12T06:05:07.910Z,1015.27
2019-03-12T06:06:08.354Z,1015.28
2019-03-12T06:07:08.848Z,1015.26
2019-03-12T06:08:09.300Z,1015.21
2019-03-12T06:09:09.845Z,1015.18
2019-03-12T06:10:10.282Z,1015.10
2019-03-12T06:11:10.856Z,1015.15
2019-03-12T06:12:11.305Z,1015.07
2019-03-12T06:13:11.857Z,1015.03
2019-03-12T06:14:12.318Z,1015.08
2019-03-12T06:15:12.791Z,1015.05
2019-03-12T06:16:13.230Z,1015.06
2019-03-12T06:17:13.723Z,1014.97
2019-03-12T06:18:14.163Z,1015.03
2019-03-12T06:19:14.700Z,1014.95
2019-03-12T06:20:15.151Z,1014.94
2019-03-12T06:21:15.699Z,1014.87
2019-03-12T06:22:16.143Z,1014.93
2019-03-12T06:23:16.595Z,1014.92
2019-03-12T06:24:17.070Z,1014.89
2019-03-12T06:25:17.587Z,1014.91
2019-03-12T06:26:18.052Z,1014.82
2019-03-12T06:27:18.528Z,1014.82
2019-03-12T06:28:18.980Z,1014.78
2019-03-12T06:29:19.488Z,1014.79
2019-03-12T06:30:19.944Z,1014.81
2019-03-12T06:31:20.393Z,1014.76
2019-03-12T06:32:20.966Z,1014.70
2019-03-12T06:33:24.129Z,1014.76
2019-03-12T06:34:24.903Z,1014.68
2019-03-12T06:35:25.341Z,1014.64
2019-03-12T06:36:25.903Z,1014.70
2019-03-12T06:37:26.347Z,1014.72
2019-03-12T06:38:26.945Z,1014.62
2019-03-12T06:39:27.413Z,1014.61
2019-03-12T06:40:27.979Z,1014.63
2019-03-12T06:41:28.432Z,1014.59
2019-03-12T06:42:29.024Z,1014.53
2019-03-12T06:43:29.466Z,1014.53
2019-03-12T06:44:30.120Z,1014.50
2019-03-12T06:45:30.567Z,1014.57
2019-03-12T06:46:31.211Z,1014.59
2019-03-12T06:47:31.667Z,1014.55
2019-03-12T06:48:32.235Z,1014.47
2019-03-12T06:49:32.735Z,1014.48
2019-03-12T06:50:35.348Z,1014.46
2019-03-12T06:51:35.798Z,1014.44
2019-03-12T06:52:36.384Z,1014.43
2019-03-12T06:53:36.830Z,1014.38
2019-03-12T06:54:37.433Z,1014.36
2019-03-12T06:55:41.003Z,1014.37
2019-03-12T06:56:41.696Z,1014.37
2019-03-12T06:57:42.298Z,1014.35
2019-03-12T06:58:42.734Z,1014.43
2019-03-12T06:59:44.377Z,1014.30
2019-03-12T07:00:44.821Z,1014.31
2019-03-12T07:01:47.325Z,1014.29
2019-03-12T07:02:47.762Z,1014.27
2019-03-12T07:03:48.197Z,1014.23
2019-03-12T07:04:48.664Z,1014.20
2019-03-12T07:05:49.110Z,1014.17
2019-03-12T07:06:49.574Z,1014.13
2019-03-12T07:07:50.100Z,1014.16
2019-03-12T07:08:50.686Z,1014.14
2019-03-12T07:09:51.153Z,1014.03
2019-03-12T07:10:51.719Z,1014.05
2019-03-12T07:11:52.174Z,1013.98
2019-03-12T07:12:52.759Z,1013.99
2019-03-12T07:13:53.200Z,1013.99
2019-03-12T07:14:53.684Z,1013.96
2019-03-12T07:15:54.124Z,1014.05
2019-03-12T07:16:54.731Z,1013.86
2019-03-12T07:17:55.171Z,1013.99
2019-03-12T07:18:55.776Z,1013.85
2019-03-12T07:19:56.239Z,1013.84
2019-03-12T07:20:58.855Z,1013.80
2019-03-12T07:21:59.496Z,1013.72
2019-03-12T07:22:59.999Z,1013.74
2019-03-12T07:24:00.511Z,1013.73
2019-03-12T07:25:00.966Z,1013.75
2019-03-12T07:26:01.413Z,1013.71
2019-03-12T07:27:01.849Z,1013.73
2019-03-12T07:28:02.512Z,1013.66
2019-03-12T07:29:02.955Z,1013.66
2019-03-12T07:30:03.434Z,1013.62
2019-03-12T07:31:04.127Z,1013.63
2019-03-12T07:32:04.617Z,1013.53
2019-03-12T07:33:05.255Z,1013.63
2019-03-12T07:34:05.691Z,1013.54
2019-03-12T07:35:06.272Z,1013.52
2019-03-12T07:36:06.724Z,1013.52
2019-03-12T07:37:07.387Z,1013.61
2019-03-12T07:38:07.831Z,1013.57
2019-03-12T07:39:08.272Z,1013.43
2019-03-12T07:40:08.878Z,1013.54
2019-03-12T07:41:22.812Z,1013.50
2019-03-12T07:42:15.740Z,1013.55
2019-03-12T07:43:23.914Z,1013.54
2019-03-12T07:44:24.359Z,1013.61
2019-03-12T07:45:24.981Z,1013.61
2019-03-12T07:46:25.466Z,1013.61
2019-03-12T07:47:35.339Z,1013.60
2019-03-12T07:48:32.344Z,1013.61
2019-03-12T07:49:32.964Z,1013.65
2019-03-12T07:50:33.417Z,1013.59
2019-03-12T07:51:34.001Z,1013.66
2019-03-12T07:52:34.439Z,1013.73
2019-03-12T07:53:35.065Z,1013.59
2019-03-12T07:54:35.505Z,1013.66
2019-03-12T07:55:36.113Z,1013.58
2019-03-12T07:56:36.620Z,1013.61
2019-03-12T07:57:37.217Z,1013.63
2019-03-12T07:58:37.666Z,1013.57
2019-03-12T07:59:38.155Z,1013.59
2019-03-12T08:00:38.627Z,1013.59
2019-03-12T08:01:40.116Z,1013.54
2019-03-12T08:02:40.552Z,1013.51
2019-03-12T08:03:41.002Z,1013.47
2019-03-12T08:04:43.594Z,1013.50
2019-03-12T08:05:44.319Z,1013.55
2019-03-12T08:06:44.884Z,1013.42
2019-03-12T08:07:45.344Z,1013.51
2019-03-12T08:08:45.792Z,1013.46
2019-03-12T08:09:46.250Z,1013.44
2019-03-12T08:10:46.703Z,1013.28
2019-03-12T08:11:47.148Z,1013.30
2019-03-12T08:12:47.686Z,1013.27
2019-03-12T08:13:48.213Z,1013.26
2019-03-12T08:14:48.665Z,1013.22
2019-03-12T08:15:50.470Z,1013.27
2019-03-12T08:16:51.120Z,1013.19
2019-03-12T08:17:52.719Z,1013.23
2019-03-12T08:18:53.177Z,1013.17
2019-03-12T08:19:53.642Z,1013.17
2019-03-12T08:20:54.192Z,1013.11
2019-03-12T08:21:54.647Z,1013.13
2019-03-12T08:22:55.104Z,1013.09
2019-03-12T08:23:55.608Z,1013.04
2019-03-12T08:24:56.238Z,1013.00
2019-03-12T08:25:56.723Z,1013.03
2019-03-12T08:26:58.332Z,1012.99
2019-03-12T08:27:58.784Z,1012.96
2019-03-12T08:28:59.337Z,1013.00
2019-03-12T08:29:59.777Z,1012.94
2019-03-12T08:31:00.240Z,1012.93
2019-03-12T08:32:00.686Z,1012.85
2019-03-12T08:33:01.132Z,1012.85
2019-03-12T08:34:01.576Z,1012.79
2019-03-12T08:35:02.038Z,1012.69
2019-03-12T08:36:02.553Z,1012.72
2019-03-12T08:37:03.026Z,1012.56
2019-03-12T08:38:03.679Z,1012.60
2019-03-12T08:39:04.113Z,1012.52
2019-03-12T08:40:04.842Z,1012.49
2019-03-12T08:41:05.318Z,1012.51
2019-03-12T08:42:05.975Z,1012.61
2019-03-12T08:43:06.422Z,1012.48
2019-03-12T08:44:06.861Z,1012.46
2019-03-12T08:45:11.250Z,1012.35
2019-03-12T08:46:18.414Z,1012.41
2019-03-12T08:47:21.337Z,1012.34
2019-03-12T08:48:21.776Z,1012.30
2019-03-12T08:49:22.220Z,1012.30
2019-03-12T08:50:22.666Z,1012.26
2019-03-12T08:51:23.131Z,1012.15
2019-03-12T08:52:23.741Z,1012.09
2019-03-12T08:53:24.191Z,1012.06
2019-03-12T08:54:24.894Z,1012.08
2019-03-12T08:55:25.357Z,1011.95
2019-03-12T08:56:25.953Z,1011.96
2019-03-12T08:57:26.402Z,1012.09
2019-03-12T08:58:27.063Z,1012.05
2019-03-12T08:59:27.505Z,1011.94
2019-03-12T09:00:27.975Z,1011.96
2019-03-12T09:01:28.425Z,1012.13
2019-03-12T09:02:28.869Z,1011.87
2019-03-12T09:03:29.354Z,1011.76
2019-03-12T09:04:29.811Z,1011.66
2019-03-12T09:05:30.248Z,1011.72
2019-03-12T09:06:30.725Z,1011.58
2019-03-12T09:07:31.252Z,1011.70
2019-03-12T09:08:32.870Z,1011.57
2019-03-12T09:09:33.316Z,1011.63
2019-03-12T09:10:33.765Z,1011.56
2019-03-12T09:11:34.309Z,1011.55
2019-03-12T09:12:34.811Z,1011.54
2019-03-12T09:13:35.254Z,1011.43
2019-03-12T09:14:35.785Z,1011.45
2019-03-12T09:15:36.231Z,1011.51
2019-03-12T09:16:37.790Z,1011.54
2019-03-12T09:17:38.266Z,1011.39
2019-03-12T09:18:39.795Z,1011.44
2019-03-12T09:19:40.234Z,1011.35
2019-03-12T09:20:41.753Z,1011.29
2019-03-12T09:21:42.249Z,1011.29
2019-03-12T09:22:42.793Z,1011.23
2019-03-12T09:23:43.236Z,1011.15
2019-03-12T09:24:43.688Z,1011.15
2019-03-12T09:25:44.378Z,1011.09
2019-03-12T09:26:44.861Z,1011.13
2019-03-12T09:27:45.381Z,1011.14
2019-03-12T09:28:45.822Z,1010.94
2019-03-12T09:31:01.752Z,1010.93
2019-03-12T09:32:02.333Z,1010.97
2019-03-12T09:33:02.771Z,1011.06
2019-03-12T09:34:03.219Z,1010.88
2019-03-12T09:35:03.677Z,1010.83
2019-03-12T09:36:04.128Z,1010.81
2019-03-12T09:37:04.600Z,1010.86
2019-03-12T09:38:05.203Z,1010.74
2019-03-12T09:39:05.752Z,1010.64
2019-03-12T09:40:06.237Z,1010.63
2019-03-12T09:41:06.676Z,1010.63
2019-03-12T09:42:07.231Z,1010.65
2019-03-12T09:43:07.717Z,1010.67
2019-03-12T09:44:10.258Z,1010.77
2019-03-12T09:45:10.698Z,1010.55
2019-03-12T09:46:11.231Z,1010.66
2019-03-12T09:47:11.669Z,1010.62
2019-03-12T09:48:12.333Z,1010.53
2019-03-12T09:49:12.836Z,1010.53
2019-03-12T09:50:13.379Z,1010.54
2019-03-12T09:51:13.846Z,1010.48
2019-03-12T09:52:14.408Z,1010.47
2019-03-12T09:53:14.844Z,1010.39
2019-03-12T09:54:15.351Z,1010.46
2019-03-12T09:55:15.804Z,1010.54
2019-03-12T09:56:20.824Z,1010.47
2019-03-12T09:57:21.260Z,1010.35
2019-03-12T09:58:22.756Z,1010.35
2019-03-12T09:59:23.206Z,1010.35
2019-03-12T10:00:23.748Z,1010.20
2019-03-12T10:01:24.215Z,1010.25
2019-03-12T10:02:26.811Z,1010.23
2019-03-12T10:03:27.316Z,1010.23
2019-03-12T10:04:28.001Z,1010.11
2019-03-12T10:05:28.579Z,1010.21
2019-03-12T10:06:29.123Z,1009.99
2019-03-12T10:07:29.571Z,1009.95
2019-03-12T10:08:30.131Z,1010.02
2019-03-12T10:09:30.567Z,1009.88
2019-03-12T10:10:32.189Z,1009.85
2019-03-12T10:11:32.648Z,1009.77
2019-03-12T10:12:33.226Z,1009.75
2019-03-12T10:13:33.662Z,1009.80
2019-03-12T10:14:34.105Z,1009.62
2019-03-12T10:15:34.552Z,1009.66
2019-03-12T10:16:35.160Z,1009.69
2019-03-12T10:17:35.602Z,1009.66
2019-03-12T10:18:36.136Z,1009.59
2019-03-12T10:19:36.580Z,1009.50
2019-03-12T10:20:37.171Z,1009.51
2019-03-12T10:21:37.774Z,1009.43
2019-03-12T10:22:38.325Z,1009.52
2019-03-12T10:23:38.760Z,1009.46
2019-03-12T10:24:40.376Z,1009.40
2019-03-12T10:25:40.808Z,1009.50
2019-03-12T10:26:42.489Z,1009.46
2019-03-12T10:27:42.962Z,1009.36
2019-03-12T10:28:44.499Z,1009.24
2019-03-12T10:29:44.981Z,1009.33
2019-03-12T10:30:45.535Z,1009.30
2019-03-12T10:31:45.995Z,1009.26
2019-03-12T10:32:46.578Z,1009.30
2019-03-12T10:33:47.009Z,1009.22
2019-03-12T10:34:47.612Z,1009.16
2019-03-12T10:35:48.054Z,1009.27
2019-03-12T10:36:48.682Z,1009.14
2019-03-12T10:37:49.126Z,1009.07
2019-03-12T10:38:49.648Z,1009.08
2019-03-12T10:39:50.090Z,1008.93
2019-03-12T10:40:50.681Z,1009.04
2019-03-12T10:41:51.133Z,1008.94
2019-03-12T10:42:51.727Z,1008.88
2019-03-12T10:43:52.167Z,1008.91
2019-03-12T10:44:53.684Z,1008.83
2019-03-12T10:45:54.129Z,1008.81
2019-03-12T10:46:54.655Z,1008.73
2019-03-12T10:47:55.100Z,1008.77
2019-03-12T10:48:55.763Z,1008.80
2019-03-12T10:49:56.205Z,1008.66
2019-03-12T10:50:57.721Z,1008.68
2019-03-12T10:51:58.178Z,1008.60
2019-03-12T10:52:58.683Z,1008.58
2019-03-12T10:54:00.306Z,1008.65
2019-03-12T10:55:12.421Z,1008.52
2019-03-12T10:56:07.146Z,1008.52
2019-03-12T10:57:07.601Z,1008.50
2019-03-12T10:58:08.210Z,1008.53
2019-03-12T10:59:08.648Z,1008.44
2019-03-12T11:00:09.243Z,1008.41
2019-03-12T11:01:09.675Z,1008.51
2019-03-12T11:02:10.220Z,1008.45
2019-03-12T11:03:10.662Z,1008.35
2019-03-12T11:04:11.218Z,1008.26
2019-03-12T11:05:11.659Z,1008.21
2019-03-12T11:06:13.175Z,1008.21
2019-03-12T11:07:16.855Z,1008.25
2019-03-12T11:08:17.592Z,1008.16
2019-03-12T11:09:18.043Z,1008.04
2019-03-12T11:10:18.691Z,1008.01
2019-03-12T11:11:19.288Z,1008.01
2019-03-12T11:12:21.855Z,1008.03
2019-03-12T11:13:22.302Z,1008.06
2019-03-12T11:14:22.876Z,1007.99
2019-03-12T11:15:23.317Z,1008.06
2019-03-12T11:16:23.900Z,1007.88
2019-03-12T11:17:24.355Z,1007.88
2019-03-12T11:18:25.025Z,1007.84
2019-03-12T11:19:25.485Z,1007.79
2019-03-12T11:20:26.083Z,1007.71
2019-03-12T11:21:26.568Z,1007.73
2019-03-12T11:22:27.043Z,1007.73
2019-03-12T11:23:27.480Z,1007.65
2019-03-12T11:24:28.061Z,1007.65
2019-03-12T11:25:28.531Z,1007.69
2019-03-12T11:26:28.974Z,1007.67
2019-03-12T11:27:29.541Z,1007.62
2019-03-12T11:28:29.988Z,1007.64
2019-03-12T11:29:31.583Z,1007.77
2019-03-12T11:30:32.033Z,1007.48
2019-03-12T11:31:32.582Z,1007.42
2019-03-12T11:32:33.131Z,1007.43
2019-03-12T11:33:33.720Z,1007.32
2019-03-12T11:34:34.170Z,1007.27
2019-03-12T11:35:39.332Z,1007.25
2019-03-12T11:36:40.121Z,1007.27
2019-03-12T11:37:40.853Z,1007.28
2019-03-12T11:38:41.339Z,1007.30
2019-03-12T11:39:41.990Z,1007.39
2019-03-12T11:40:42.460Z,1007.25
2019-03-12T11:41:43.361Z,1007.14
2019-03-12T11:42:43.995Z,1007.10
2019-03-12T11:43:44.580Z,1007.05
2019-03-12T11:44:45.109Z,1006.94
2019-03-12T11:45:45.763Z,1006.96
2019-03-12T11:46:46.502Z,1007.09
2019-03-12T11:47:47.205Z,1006.85
2019-03-12T11:48:47.736Z,1006.90
2019-03-12T11:49:50.373Z,1006.97
2019-03-12T11:50:50.823Z,1006.93
2019-03-12T11:51:51.421Z,1006.73
2019-03-12T11:52:56.232Z,1006.65
2019-03-12T11:53:58.472Z,1006.72
2019-03-12T11:54:58.923Z,1007.03
2019-03-12T11:55:59.535Z,1006.65
2019-03-12T11:56:59.998Z,1006.62
2019-03-12T11:58:00.673Z,1006.53
2019-03-12T11:59:01.220Z,1006.60
2019-03-12T12:00:02.036Z,1006.52
2019-03-12T12:01:02.722Z,1006.41
2019-03-12T12:02:03.235Z,1006.49
2019-03-12T12:03:03.718Z,1006.52
2019-03-12T12:04:10.823Z,1006.44
2019-03-12T12:05:11.285Z,1006.45
2019-03-12T12:06:11.882Z,1006.52
2019-03-12T12:07:12.342Z,1006.38
2019-03-12T12:08:13.109Z,1006.29
2019-03-12T12:09:13.724Z,1006.31
2019-03-12T12:10:15.376Z,1006.45
2019-03-12T12:11:15.834Z,1006.17
2019-03-12T12:12:16.412Z,1006.18
2019-03-12T12:13:16.870Z,1006.22
2019-03-12T12:14:17.457Z,1006.27
2019-03-12T12:15:17.906Z,1006.18